sensor_id;sensor_type;location;lat;lon;timestamp;temperature;humidity
13585;DHT22;6863;48.402;9.994;2022-12-31T00:00:36;10.10;99.90
13585;DHT22;6863;48.402;9.994;2022-12-31T00:03:04;10.10;99.90
13585;DHT22;6863;48.402;9.994;2022-12-31T00:05:33;10.20;99.90
13585;DHT22;6863;48.402;9.994;2022-12-31T00:08:01;10.20;99.90
13585;DHT22;6863;48.402;9.994;2022-12-31T00:10:27;10.30;99.90
13585;DHT22;6863;48.402;9.994;2022-12-31T00:12:53;10.40;99.90
13585;DHT22;6863;48.402;9.994;2022-12-31T00:15:19;10.40;99.90
13585;DHT22;6863;48.402;9.994;2022-12-31T00:17:45;10.50;99.90
13585;DHT22;6863;48.402;9.994;2022-12-31T00:20:10;10.50;99.90
13585;DHT22;6863;48.402;9.994;2022-12-31T00:22:36;10.50;99.90
13585;DHT22;6863;48.402;9.994;2022-12-31T00:25:02;10.50;99.90
13585;DHT22;6863;48.402;9.994;2022-12-31T00:27:31;10.60;99.90
13585;DHT22;6863;48.402;9.994;2022-12-31T00:29:56;10.60;99.90
13585;DHT22;6863;48.402;9.994;2022-12-31T00:32:22;10.60;99.90
13585;DHT22;6863;48.402;9.994;2022-12-31T00:34:48;10.70;99.90
13585;DHT22;6863;48.402;9.994;2022-12-31T00:37:13;10.70;99.90
13585;DHT22;6863;48.402;9.994;2022-12-31T00:39:39;10.70;99.90
13585;DHT22;6863;48.402;9.994;2022-12-31T00:42:05;10.80;99.90
13585;DHT22;6863;48.402;9.994;2022-12-31T00:44:31;10.80;99.90
13585;DHT22;6863;48.402;9.994;2022-12-31T00:49:28;10.80;99.90
13585;DHT22;6863;48.402;9.994;2022-12-31T00:51:53;10.80;99.90
13585;DHT22;6863;48.402;9.994;2022-12-31T00:54:19;10.80;99.90
13585;DHT22;6863;48.402;9.994;2022-12-31T00:56:44;10.80;99.90
13585;DHT22;6863;48.402;9.994;2022-12-31T00:59:10;10.70;99.90
13585;DHT22;6863;48.402;9.994;2022-12-31T01:01:37;10.80;99.90
13585;DHT22;6863;48.402;9.994;2022-12-31T01:04:07;10.70;99.90
13585;DHT22;6863;48.402;9.994;2022-12-31T01:06:33;10.70;99.90
13585;DHT22;6863;48.402;9.994;2022-12-31T01:08:58;10.70;99.90
13585;DHT22;6863;48.402;9.994;2022-12-31T01:11:24;10.80;99.90
13585;DHT22;6863;48.402;9.994;2022-12-31T01:13:59;10.80;99.90
13585;DHT22;6863;48.402;9.994;2022-12-31T01:16:29;10.80;99.90
13585;DHT22;6863;48.402;9.994;2022-12-31T01:18:58;10.80;99.90
13585;DHT22;6863;48.402;9.994;2022-12-31T01:21:24;10.90;99.90
13585;DHT22;6863;48.402;9.994;2022-12-31T01:23:50;10.90;99.90
13585;DHT22;6863;48.402;9.994;2022-12-31T01:26:17;10.80;99.90
13585;DHT22;6863;48.402;9.994;2022-12-31T01:28:43;10.80;99.90
13585;DHT22;6863;48.402;9.994;2022-12-31T01:31:12;10.80;99.90
13585;DHT22;6863;48.402;9.994;2022-12-31T01:33:38;10.70;99.90
13585;DHT22;6863;48.402;9.994;2022-12-31T01:36:06;10.70;99.90
13585;DHT22;6863;48.402;9.994;2022-12-31T01:38:33;10.70;99.90
13585;DHT22;6863;48.402;9.994;2022-12-31T01:40:59;10.70;99.90
13585;DHT22;6863;48.402;9.994;2022-12-31T01:46:07;10.70;99.90
13585;DHT22;6863;48.402;9.994;2022-12-31T01:48:33;10.70;99.90
13585;DHT22;6863;48.402;9.994;2022-12-31T01:50:59;10.60;99.90
13585;DHT22;6863;48.402;9.994;2022-12-31T01:53:25;10.50;99.90
13585;DHT22;6863;48.402;9.994;2022-12-31T01:55:56;10.50;99.90
13585;DHT22;6863;48.402;9.994;2022-12-31T01:58:28;10.50;99.90
13585;DHT22;6863;48.402;9.994;2022-12-31T02:00:54;10.50;99.90
13585;DHT22;6863;48.402;9.994;2022-12-31T02:03:22;10.50;99.90
13585;DHT22;6863;48.402;9.994;2022-12-31T02:06:10;10.50;99.90
13585;DHT22;6863;48.402;9.994;2022-12-31T02:08:38;10.40;99.90
13585;DHT22;6863;48.402;9.994;2022-12-31T02:13:48;10.40;99.90
13585;DHT22;6863;48.402;9.994;2022-12-31T02:16:22;10.30;99.90
13585;DHT22;6863;48.402;9.994;2022-12-31T02:19:14;10.20;99.90
13585;DHT22;6863;48.402;9.994;2022-12-31T02:21:46;10.20;99.90
13585;DHT22;6863;48.402;9.994;2022-12-31T02:35:23;10.00;99.90
13585;DHT22;6863;48.402;9.994;2022-12-31T02:37:56;10.00;99.90
13585;DHT22;6863;48.402;9.994;2022-12-31T02:40:23;10.00;99.90
13585;DHT22;6863;48.402;9.994;2022-12-31T02:42:49;10.00;99.90
13585;DHT22;6863;48.402;9.994;2022-12-31T02:45:18;10.00;99.90
13585;DHT22;6863;48.402;9.994;2022-12-31T02:53:42;10.00;99.90
13585;DHT22;6863;48.402;9.994;2022-12-31T02:56:37;9.90;99.90
13585;DHT22;6863;48.402;9.994;2022-12-31T03:02:07;10.00;99.90
13585;DHT22;6863;48.402;9.994;2022-12-31T03:05:00;10.00;99.90
13585;DHT22;6863;48.402;9.994;2022-12-31T03:07:31;10.20;99.90
13585;DHT22;6863;48.402;9.994;2022-12-31T03:09:58;10.20;99.90
13585;DHT22;6863;48.402;9.994;2022-12-31T03:12:27;10.30;99.90
13585;DHT22;6863;48.402;9.994;2022-12-31T03:15:23;10.40;99.90
13585;DHT22;6863;48.402;9.994;2022-12-31T03:20:20;10.50;99.90
13585;DHT22;6863;48.402;9.994;2022-12-31T03:23:06;10.50;99.90
13585;DHT22;6863;48.402;9.994;2022-12-31T03:25:32;10.50;99.90
13585;DHT22;6863;48.402;9.994;2022-12-31T03:28:02;10.40;99.90
13585;DHT22;6863;48.402;9.994;2022-12-31T03:30:29;10.50;99.90
13585;DHT22;6863;48.402;9.994;2022-12-31T03:32:55;10.50;99.90
13585;DHT22;6863;48.402;9.994;2022-12-31T03:35:21;10.50;99.90
13585;DHT22;6863;48.402;9.994;2022-12-31T03:37:48;10.60;99.90
13585;DHT22;6863;48.402;9.994;2022-12-31T03:40:15;10.60;99.90
13585;DHT22;6863;48.402;9.994;2022-12-31T03:42:41;10.60;99.90
13585;DHT22;6863;48.402;9.994;2022-12-31T03:45:08;10.60;99.90
13585;DHT22;6863;48.402;9.994;2022-12-31T03:47:34;10.60;99.90
13585;DHT22;6863;48.402;9.994;2022-12-31T03:49:59;10.60;99.90
13585;DHT22;6863;48.402;9.994;2022-12-31T03:52:25;10.60;99.90
13585;DHT22;6863;48.402;9.994;2022-12-31T03:54:51;10.40;99.90
13585;DHT22;6863;48.402;9.994;2022-12-31T03:57:16;10.40;99.90
13585;DHT22;6863;48.402;9.994;2022-12-31T03:59:42;10.30;99.90
13585;DHT22;6863;48.402;9.994;2022-12-31T04:02:07;10.30;99.90
13585;DHT22;6863;48.402;9.994;2022-12-31T04:04:33;10.30;99.90
13585;DHT22;6863;48.402;9.994;2022-12-31T04:06:58;10.20;99.90
13585;DHT22;6863;48.402;9.994;2022-12-31T04:09:24;10.20;99.90
13585;DHT22;6863;48.402;9.994;2022-12-31T04:11:50;10.20;99.90
13585;DHT22;6863;48.402;9.994;2022-12-31T04:14:16;10.30;99.90
13585;DHT22;6863;48.402;9.994;2022-12-31T04:16:42;10.40;99.90
13585;DHT22;6863;48.402;9.994;2022-12-31T04:19:08;10.40;99.90
13585;DHT22;6863;48.402;9.994;2022-12-31T04:21:34;10.30;99.90
13585;DHT22;6863;48.402;9.994;2022-12-31T04:24:00;10.40;99.90
13585;DHT22;6863;48.402;9.994;2022-12-31T04:26:26;10.40;99.90
13585;DHT22;6863;48.402;9.994;2022-12-31T04:28:52;10.40;99.90
13585;DHT22;6863;48.402;9.994;2022-12-31T04:31:18;10.40;99.90
13585;DHT22;6863;48.402;9.994;2022-12-31T04:33:43;10.40;99.90
13585;DHT22;6863;48.402;9.994;2022-12-31T04:36:09;10.40;99.90
13585;DHT22;6863;48.402;9.994;2022-12-31T04:38:35;10.40;99.90
13585;DHT22;6863;48.402;9.994;2022-12-31T04:41:00;10.40;99.90
13585;DHT22;6863;48.402;9.994;2022-12-31T04:43:41;10.40;99.90
13585;DHT22;6863;48.402;9.994;2022-12-31T04:46:07;10.50;99.90
13585;DHT22;6863;48.402;9.994;2022-12-31T04:48:33;10.50;99.90
13585;DHT22;6863;48.402;9.994;2022-12-31T04:50:59;10.50;99.90
13585;DHT22;6863;48.402;9.994;2022-12-31T04:53:25;10.50;99.90
13585;DHT22;6863;48.402;9.994;2022-12-31T04:55:51;10.50;99.90
13585;DHT22;6863;48.402;9.994;2022-12-31T04:58:17;10.50;99.90
13585;DHT22;6863;48.402;9.994;2022-12-31T05:00:44;10.60;99.90
13585;DHT22;6863;48.402;9.994;2022-12-31T05:03:13;10.60;99.90
13585;DHT22;6863;48.402;9.994;2022-12-31T05:05:39;10.60;99.90
13585;DHT22;6863;48.402;9.994;2022-12-31T05:08:08;10.60;99.90
13585;DHT22;6863;48.402;9.994;2022-12-31T05:10:34;10.60;99.90
13585;DHT22;6863;48.402;9.994;2022-12-31T05:12:59;10.70;99.90
13585;DHT22;6863;48.402;9.994;2022-12-31T05:15:25;10.60;99.90
13585;DHT22;6863;48.402;9.994;2022-12-31T05:17:50;10.70;99.90
13585;DHT22;6863;48.402;9.994;2022-12-31T05:20:16;10.60;99.90
13585;DHT22;6863;48.402;9.994;2022-12-31T05:22:42;10.60;99.90
13585;DHT22;6863;48.402;9.994;2022-12-31T05:25:07;10.60;99.90
13585;DHT22;6863;48.402;9.994;2022-12-31T05:27:33;10.70;99.90
13585;DHT22;6863;48.402;9.994;2022-12-31T05:29:59;10.60;99.90
13585;DHT22;6863;48.402;9.994;2022-12-31T05:32:25;10.60;99.90
13585;DHT22;6863;48.402;9.994;2022-12-31T05:34:50;10.60;99.90
13585;DHT22;6863;48.402;9.994;2022-12-31T05:37:17;10.60;99.90
13585;DHT22;6863;48.402;9.994;2022-12-31T05:39:43;10.60;99.90
13585;DHT22;6863;48.402;9.994;2022-12-31T05:42:08;10.60;99.90
13585;DHT22;6863;48.402;9.994;2022-12-31T05:44:34;10.60;99.90
13585;DHT22;6863;48.402;9.994;2022-12-31T05:47:00;10.60;99.90
13585;DHT22;6863;48.402;9.994;2022-12-31T05:49:25;10.60;99.90
13585;DHT22;6863;48.402;9.994;2022-12-31T05:51:51;10.50;99.90
13585;DHT22;6863;48.402;9.994;2022-12-31T05:54:16;10.50;99.90
13585;DHT22;6863;48.402;9.994;2022-12-31T05:56:42;10.50;99.90
13585;DHT22;6863;48.402;9.994;2022-12-31T05:59:07;10.40;99.90
13585;DHT22;6863;48.402;9.994;2022-12-31T06:01:33;10.40;99.90
13585;DHT22;6863;48.402;9.994;2022-12-31T06:03:59;10.40;99.90
13585;DHT22;6863;48.402;9.994;2022-12-31T06:06:25;10.40;99.90
13585;DHT22;6863;48.402;9.994;2022-12-31T06:08:51;10.50;99.90
13585;DHT22;6863;48.402;9.994;2022-12-31T06:11:16;10.50;99.90
13585;DHT22;6863;48.402;9.994;2022-12-31T06:13:42;10.40;99.90
13585;DHT22;6863;48.402;9.994;2022-12-31T06:16:09;10.40;99.90
13585;DHT22;6863;48.402;9.994;2022-12-31T06:18:34;10.30;99.90
13585;DHT22;6863;48.402;9.994;2022-12-31T06:21:00;10.20;99.90
13585;DHT22;6863;48.402;9.994;2022-12-31T06:23:26;10.20;99.90
13585;DHT22;6863;48.402;9.994;2022-12-31T06:25:51;10.10;99.90
13585;DHT22;6863;48.402;9.994;2022-12-31T06:28:17;10.20;99.90
13585;DHT22;6863;48.402;9.994;2022-12-31T06:30:43;10.10;99.90
13585;DHT22;6863;48.402;9.994;2022-12-31T06:33:08;10.00;99.90
13585;DHT22;6863;48.402;9.994;2022-12-31T06:35:34;10.00;99.90
13585;DHT22;6863;48.402;9.994;2022-12-31T06:37:59;10.00;99.90
13585;DHT22;6863;48.402;9.994;2022-12-31T06:40:25;9.90;99.90
13585;DHT22;6863;48.402;9.994;2022-12-31T06:42:51;9.90;99.90
13585;DHT22;6863;48.402;9.994;2022-12-31T06:45:18;9.90;99.90
13585;DHT22;6863;48.402;9.994;2022-12-31T06:47:43;9.90;99.90
13585;DHT22;6863;48.402;9.994;2022-12-31T06:50:10;10.00;99.90
13585;DHT22;6863;48.402;9.994;2022-12-31T06:52:35;10.00;99.90
13585;DHT22;6863;48.402;9.994;2022-12-31T06:55:02;10.00;99.90
13585;DHT22;6863;48.402;9.994;2022-12-31T06:57:28;10.00;99.90
13585;DHT22;6863;48.402;9.994;2022-12-31T06:59:53;10.00;99.90
13585;DHT22;6863;48.402;9.994;2022-12-31T07:07:35;10.00;99.90
13585;DHT22;6863;48.402;9.994;2022-12-31T07:10:19;10.00;99.90
13585;DHT22;6863;48.402;9.994;2022-12-31T07:21:37;9.80;99.90
13585;DHT22;6863;48.402;9.994;2022-12-31T07:24:08;9.70;99.90
13585;DHT22;6863;48.402;9.994;2022-12-31T07:29:40;9.70;99.90
13585;DHT22;6863;48.402;9.994;2022-12-31T07:42:37;10.10;99.90
13585;DHT22;6863;48.402;9.994;2022-12-31T07:45:26;10.10;99.90
13585;DHT22;6863;48.402;9.994;2022-12-31T07:47:53;10.10;99.90
13585;DHT22;6863;48.402;9.994;2022-12-31T07:50:19;10.10;99.90
13585;DHT22;6863;48.402;9.994;2022-12-31T07:52:45;10.20;99.90
13585;DHT22;6863;48.402;9.994;2022-12-31T07:55:11;10.20;99.90
13585;DHT22;6863;48.402;9.994;2022-12-31T07:57:46;10.20;99.90
13585;DHT22;6863;48.402;9.994;2022-12-31T08:00:14;10.20;99.90
13585;DHT22;6863;48.402;9.994;2022-12-31T08:08:39;10.20;99.90
13585;DHT22;6863;48.402;9.994;2022-12-31T08:13:48;10.40;99.90
13585;DHT22;6863;48.402;9.994;2022-12-31T08:16:15;10.50;99.90
13585;DHT22;6863;48.402;9.994;2022-12-31T08:18:40;10.40;99.90
13585;DHT22;6863;48.402;9.994;2022-12-31T08:24:15;10.40;99.90
13585;DHT22;6863;48.402;9.994;2022-12-31T08:30:06;10.70;99.90
13585;DHT22;6863;48.402;9.994;2022-12-31T08:35:05;11.80;99.90
13585;DHT22;6863;48.402;9.994;2022-12-31T08:37:38;12.50;99.90
13585;DHT22;6863;48.402;9.994;2022-12-31T08:40:23;13.20;99.90
13585;DHT22;6863;48.402;9.994;2022-12-31T08:43:11;13.40;99.90
13585;DHT22;6863;48.402;9.994;2022-12-31T08:45:51;14.10;99.90
13585;DHT22;6863;48.402;9.994;2022-12-31T08:48:41;15.40;99.90
13585;DHT22;6863;48.402;9.994;2022-12-31T08:51:13;16.30;99.30
13585;DHT22;6863;48.402;9.994;2022-12-31T08:53:41;16.70;97.10
13585;DHT22;6863;48.402;9.994;2022-12-31T08:56:31;16.00;97.60
13585;DHT22;6863;48.402;9.994;2022-12-31T09:16:35;15.50;98.50
13585;DHT22;6863;48.402;9.994;2022-12-31T09:19:04;14.80;99.30
13585;DHT22;6863;48.402;9.994;2022-12-31T09:21:29;13.90;99.90
13585;DHT22;6863;48.402;9.994;2022-12-31T09:23:57;13.60;99.90
13585;DHT22;6863;48.402;9.994;2022-12-31T09:27:02;13.40;99.90
13585;DHT22;6863;48.402;9.994;2022-12-31T09:34:54;13.00;99.90
13585;DHT22;6863;48.402;9.994;2022-12-31T09:39:54;13.40;99.90
13585;DHT22;6863;48.402;9.994;2022-12-31T09:45:17;14.60;99.90
13585;DHT22;6863;48.402;9.994;2022-12-31T09:50:58;14.20;99.90
13585;DHT22;6863;48.402;9.994;2022-12-31T09:53:37;14.80;99.90
13585;DHT22;6863;48.402;9.994;2022-12-31T09:56:26;15.30;99.90
13585;DHT22;6863;48.402;9.994;2022-12-31T09:59:05;17.10;96.80
13585;DHT22;6863;48.402;9.994;2022-12-31T10:01:57;18.50;94.20
13585;DHT22;6863;48.402;9.994;2022-12-31T10:04:50;18.90;92.10
13585;DHT22;6863;48.402;9.994;2022-12-31T10:10:05;17.60;93.40
13585;DHT22;6863;48.402;9.994;2022-12-31T10:15:34;16.40;96.00
13585;DHT22;6863;48.402;9.994;2022-12-31T10:29:44;20.70;84.80
13585;DHT22;6863;48.402;9.994;2022-12-31T10:32:20;21.60;82.40
13585;DHT22;6863;48.402;9.994;2022-12-31T10:37:56;22.80;74.90
13585;DHT22;6863;48.402;9.994;2022-12-31T11:00:39;22.00;71.40
13585;DHT22;6863;48.402;9.994;2022-12-31T11:09:31;24.80;64.00
13585;DHT22;6863;48.402;9.994;2022-12-31T11:12:46;25.10;61.40
13585;DHT22;6863;48.402;9.994;2022-12-31T11:17:52;25.70;58.30
13585;DHT22;6863;48.402;9.994;2022-12-31T11:25:53;24.60;59.70
13585;DHT22;6863;48.402;9.994;2022-12-31T11:31:39;23.40;64.10
13585;DHT22;6863;48.402;9.994;2022-12-31T11:34:38;24.30;62.30
13585;DHT22;6863;48.402;9.994;2022-12-31T11:43:00;22.10;66.70
13585;DHT22;6863;48.402;9.994;2022-12-31T11:55:03;23.70;63.60
13585;DHT22;6863;48.402;9.994;2022-12-31T12:00:12;25.40;59.30
13585;DHT22;6863;48.402;9.994;2022-12-31T12:02:46;24.60;59.80
13585;DHT22;6863;48.402;9.994;2022-12-31T12:05:16;24.70;59.90
13585;DHT22;6863;48.402;9.994;2022-12-31T12:07:43;25.20;59.30
13585;DHT22;6863;48.402;9.994;2022-12-31T12:10:30;25.40;58.20
13585;DHT22;6863;48.402;9.994;2022-12-31T12:12:57;25.50;58.00
13585;DHT22;6863;48.402;9.994;2022-12-31T12:15:27;25.50;57.80
13585;DHT22;6863;48.402;9.994;2022-12-31T12:17:56;25.70;57.40
13585;DHT22;6863;48.402;9.994;2022-12-31T12:20:34;24.60;59.00
13585;DHT22;6863;48.402;9.994;2022-12-31T12:23:11;22.80;62.50
13585;DHT22;6863;48.402;9.994;2022-12-31T12:25:40;22.80;64.20
13585;DHT22;6863;48.402;9.994;2022-12-31T12:28:19;22.90;64.30
13585;DHT22;6863;48.402;9.994;2022-12-31T12:31:02;24.80;60.70
13585;DHT22;6863;48.402;9.994;2022-12-31T12:33:40;24.30;59.90
13585;DHT22;6863;48.402;9.994;2022-12-31T12:36:12;24.90;60.10
13585;DHT22;6863;48.402;9.994;2022-12-31T12:38:38;24.60;59.70
13585;DHT22;6863;48.402;9.994;2022-12-31T12:41:06;24.40;59.70
13585;DHT22;6863;48.402;9.994;2022-12-31T12:43:34;23.60;61.40
13585;DHT22;6863;48.402;9.994;2022-12-31T12:46:29;23.10;62.80
13585;DHT22;6863;48.402;9.994;2022-12-31T12:48:56;22.20;64.30
13585;DHT22;6863;48.402;9.994;2022-12-31T12:51:46;21.90;65.80
13585;DHT22;6863;48.402;9.994;2022-12-31T12:57:45;22.00;66.00
13585;DHT22;6863;48.402;9.994;2022-12-31T13:00:20;22.40;65.20
13585;DHT22;6863;48.402;9.994;2022-12-31T13:20:14;22.90;62.30
13585;DHT22;6863;48.402;9.994;2022-12-31T13:22:50;22.40;63.10
13585;DHT22;6863;48.402;9.994;2022-12-31T13:25:42;21.30;65.60
13585;DHT22;6863;48.402;9.994;2022-12-31T13:28:14;20.80;68.00
13585;DHT22;6863;48.402;9.994;2022-12-31T13:31:03;20.30;69.60
13585;DHT22;6863;48.402;9.994;2022-12-31T13:33:44;19.90;71.40
13585;DHT22;6863;48.402;9.994;2022-12-31T13:36:18;19.80;72.10
13585;DHT22;6863;48.402;9.994;2022-12-31T13:38:51;19.80;72.70
13585;DHT22;6863;48.402;9.994;2022-12-31T13:41:21;19.70;73.20
13585;DHT22;6863;48.402;9.994;2022-12-31T13:44:16;19.60;73.80
13585;DHT22;6863;48.402;9.994;2022-12-31T13:49:36;18.90;77.00
13585;DHT22;6863;48.402;9.994;2022-12-31T13:52:28;18.70;77.90
13585;DHT22;6863;48.402;9.994;2022-12-31T14:00:24;17.70;82.80
13585;DHT22;6863;48.402;9.994;2022-12-31T14:08:03;17.30;86.80
13585;DHT22;6863;48.402;9.994;2022-12-31T14:10:55;17.10;88.20
13585;DHT22;6863;48.402;9.994;2022-12-31T14:16:10;16.70;90.30
13585;DHT22;6863;48.402;9.994;2022-12-31T14:21:26;16.50;91.40
13585;DHT22;6863;48.402;9.994;2022-12-31T14:26:55;16.30;92.40
13585;DHT22;6863;48.402;9.994;2022-12-31T14:29:32;16.20;92.50
13585;DHT22;6863;48.402;9.994;2022-12-31T14:32:21;16.10;92.90
13585;DHT22;6863;48.402;9.994;2022-12-31T14:43:23;15.60;95.00
13585;DHT22;6863;48.402;9.994;2022-12-31T14:46:08;15.50;95.50
13585;DHT22;6863;48.402;9.994;2022-12-31T14:48:53;15.20;96.30
13585;DHT22;6863;48.402;9.994;2022-12-31T14:51:21;15.10;96.90
13585;DHT22;6863;48.402;9.994;2022-12-31T14:53:52;14.90;97.40
13585;DHT22;6863;48.402;9.994;2022-12-31T14:56:40;14.90;97.80
13585;DHT22;6863;48.402;9.994;2022-12-31T14:59:38;14.70;98.40
13585;DHT22;6863;48.402;9.994;2022-12-31T15:02:33;14.60;98.90
13585;DHT22;6863;48.402;9.994;2022-12-31T15:05:23;14.50;99.30
13585;DHT22;6863;48.402;9.994;2022-12-31T15:08:07;14.30;99.60
13585;DHT22;6863;48.402;9.994;2022-12-31T15:10:52;14.20;99.90
13585;DHT22;6863;48.402;9.994;2022-12-31T15:16:32;14.10;99.90
13585;DHT22;6863;48.402;9.994;2022-12-31T15:19:44;14.00;99.90
13585;DHT22;6863;48.402;9.994;2022-12-31T15:24:48;13.80;99.90
13585;DHT22;6863;48.402;9.994;2022-12-31T15:27:33;13.70;99.90
13585;DHT22;6863;48.402;9.994;2022-12-31T15:30:00;13.80;99.90
13585;DHT22;6863;48.402;9.994;2022-12-31T15:32:39;13.70;99.90
13585;DHT22;6863;48.402;9.994;2022-12-31T15:38:02;13.50;99.90
13585;DHT22;6863;48.402;9.994;2022-12-31T15:40:28;13.40;99.90
13585;DHT22;6863;48.402;9.994;2022-12-31T15:42:59;13.30;99.90
13585;DHT22;6863;48.402;9.994;2022-12-31T15:45:32;13.20;99.90
13585;DHT22;6863;48.402;9.994;2022-12-31T15:48:05;13.10;99.90
13585;DHT22;6863;48.402;9.994;2022-12-31T15:50:35;13.00;99.90
13585;DHT22;6863;48.402;9.994;2022-12-31T15:53:03;13.10;99.90
13585;DHT22;6863;48.402;9.994;2022-12-31T15:55:45;13.10;99.90
13585;DHT22;6863;48.402;9.994;2022-12-31T15:58:18;13.00;99.90
13585;DHT22;6863;48.402;9.994;2022-12-31T16:03:29;13.00;99.90
13585;DHT22;6863;48.402;9.994;2022-12-31T16:06:16;12.90;99.90
13585;DHT22;6863;48.402;9.994;2022-12-31T16:08:47;12.80;99.90
13585;DHT22;6863;48.402;9.994;2022-12-31T16:11:13;12.70;99.90
13585;DHT22;6863;48.402;9.994;2022-12-31T16:13:48;12.70;99.90
13585;DHT22;6863;48.402;9.994;2022-12-31T16:16:29;12.70;99.90
13585;DHT22;6863;48.402;9.994;2022-12-31T16:18:56;12.60;99.90
13585;DHT22;6863;48.402;9.994;2022-12-31T16:21:31;12.50;99.90
13585;DHT22;6863;48.402;9.994;2022-12-31T16:24:00;12.40;99.90
13585;DHT22;6863;48.402;9.994;2022-12-31T16:26:31;12.40;99.90
13585;DHT22;6863;48.402;9.994;2022-12-31T16:28:57;12.30;99.90
13585;DHT22;6863;48.402;9.994;2022-12-31T16:31:27;12.20;99.90
13585;DHT22;6863;48.402;9.994;2022-12-31T16:34:09;12.10;99.90
13585;DHT22;6863;48.402;9.994;2022-12-31T16:36:36;12.00;99.90
13585;DHT22;6863;48.402;9.994;2022-12-31T16:39:58;11.90;99.90
13585;DHT22;6863;48.402;9.994;2022-12-31T16:44:38;11.70;99.90
13585;DHT22;6863;48.402;9.994;2022-12-31T16:47:05;11.60;99.90
13585;DHT22;6863;48.402;9.994;2022-12-31T16:49:34;11.50;99.90
13585;DHT22;6863;48.402;9.994;2022-12-31T16:52:03;11.40;99.90
13585;DHT22;6863;48.402;9.994;2022-12-31T16:54:37;11.30;99.90
13585;DHT22;6863;48.402;9.994;2022-12-31T16:57:04;11.20;99.90
13585;DHT22;6863;48.402;9.994;2022-12-31T16:59:53;11.10;99.90
13585;DHT22;6863;48.402;9.994;2022-12-31T17:02:26;11.10;99.90
13585;DHT22;6863;48.402;9.994;2022-12-31T17:04:53;11.00;99.90
13585;DHT22;6863;48.402;9.994;2022-12-31T17:12:40;10.70;99.90
13585;DHT22;6863;48.402;9.994;2022-12-31T17:15:15;10.70;99.90
13585;DHT22;6863;48.402;9.994;2022-12-31T17:17:41;10.60;99.90
13585;DHT22;6863;48.402;9.994;2022-12-31T17:20:07;10.60;99.90
13585;DHT22;6863;48.402;9.994;2022-12-31T17:22:43;10.70;99.90
13585;DHT22;6863;48.402;9.994;2022-12-31T17:25:24;10.60;99.90
13585;DHT22;6863;48.402;9.994;2022-12-31T17:28:00;10.60;99.90
13585;DHT22;6863;48.402;9.994;2022-12-31T17:33:10;10.40;99.90
13585;DHT22;6863;48.402;9.994;2022-12-31T17:36:13;10.40;99.90
13585;DHT22;6863;48.402;9.994;2022-12-31T17:38:40;10.40;99.90
13585;DHT22;6863;48.402;9.994;2022-12-31T17:43:33;10.80;99.90
13585;DHT22;6863;48.402;9.994;2022-12-31T17:46:00;10.80;99.90
13585;DHT22;6863;48.402;9.994;2022-12-31T17:48:28;10.80;99.90
13585;DHT22;6863;48.402;9.994;2022-12-31T17:50:56;10.90;99.90
13585;DHT22;6863;48.402;9.994;2022-12-31T17:53:22;11.10;99.90
13585;DHT22;6863;48.402;9.994;2022-12-31T17:55:52;11.30;99.90
13585;DHT22;6863;48.402;9.994;2022-12-31T17:58:43;11.50;99.90
13585;DHT22;6863;48.402;9.994;2022-12-31T18:01:12;11.70;99.90
13585;DHT22;6863;48.402;9.994;2022-12-31T18:03:38;11.70;99.90
13585;DHT22;6863;48.402;9.994;2022-12-31T18:06:04;11.70;99.90
13585;DHT22;6863;48.402;9.994;2022-12-31T18:08:29;11.70;99.90
13585;DHT22;6863;48.402;9.994;2022-12-31T18:10:55;11.70;99.90
13585;DHT22;6863;48.402;9.994;2022-12-31T18:13:23;11.70;99.90
13585;DHT22;6863;48.402;9.994;2022-12-31T18:15:49;11.70;99.90
13585;DHT22;6863;48.402;9.994;2022-12-31T18:18:18;11.70;99.90
13585;DHT22;6863;48.402;9.994;2022-12-31T18:20:44;11.70;99.90
13585;DHT22;6863;48.402;9.994;2022-12-31T18:23:23;11.60;99.90
13585;DHT22;6863;48.402;9.994;2022-12-31T18:25:50;11.50;99.90
13585;DHT22;6863;48.402;9.994;2022-12-31T18:28:15;11.50;99.90
13585;DHT22;6863;48.402;9.994;2022-12-31T18:30:41;11.40;99.90
13585;DHT22;6863;48.402;9.994;2022-12-31T18:33:10;11.50;99.90
13585;DHT22;6863;48.402;9.994;2022-12-31T18:35:36;11.40;99.90
13585;DHT22;6863;48.402;9.994;2022-12-31T18:38:02;11.40;99.90
13585;DHT22;6863;48.402;9.994;2022-12-31T18:40:28;11.40;99.90
13585;DHT22;6863;48.402;9.994;2022-12-31T18:42:53;11.40;99.90
13585;DHT22;6863;48.402;9.994;2022-12-31T18:45:19;11.30;99.90
13585;DHT22;6863;48.402;9.994;2022-12-31T18:47:45;11.30;99.90
13585;DHT22;6863;48.402;9.994;2022-12-31T18:50:14;11.20;99.90
13585;DHT22;6863;48.402;9.994;2022-12-31T18:52:44;11.20;99.90
13585;DHT22;6863;48.402;9.994;2022-12-31T18:57:58;11.10;99.90
13585;DHT22;6863;48.402;9.994;2022-12-31T19:00:24;11.00;99.90
13585;DHT22;6863;48.402;9.994;2022-12-31T19:02:49;10.90;99.90
13585;DHT22;6863;48.402;9.994;2022-12-31T19:05:27;10.90;99.90
13585;DHT22;6863;48.402;9.994;2022-12-31T19:07:53;10.90;99.90
13585;DHT22;6863;48.402;9.994;2022-12-31T19:10:20;10.90;99.90
13585;DHT22;6863;48.402;9.994;2022-12-31T19:12:46;10.90;99.90
13585;DHT22;6863;48.402;9.994;2022-12-31T19:15:28;10.80;99.90
13585;DHT22;6863;48.402;9.994;2022-12-31T19:17:55;10.70;99.90
13585;DHT22;6863;48.402;9.994;2022-12-31T19:20:21;10.70;99.90
13585;DHT22;6863;48.402;9.994;2022-12-31T19:22:47;10.60;99.90
13585;DHT22;6863;48.402;9.994;2022-12-31T19:28:01;10.50;99.90
13585;DHT22;6863;48.402;9.994;2022-12-31T19:30:30;10.50;99.90
13585;DHT22;6863;48.402;9.994;2022-12-31T19:32:57;10.40;99.90
13585;DHT22;6863;48.402;9.994;2022-12-31T19:35:26;10.50;99.90
13585;DHT22;6863;48.402;9.994;2022-12-31T19:37:53;10.60;99.90
13585;DHT22;6863;48.402;9.994;2022-12-31T19:40:25;10.60;99.90
13585;DHT22;6863;48.402;9.994;2022-12-31T19:42:55;10.60;99.90
13585;DHT22;6863;48.402;9.994;2022-12-31T19:45:23;10.70;99.90
13585;DHT22;6863;48.402;9.994;2022-12-31T19:47:49;10.70;99.90
13585;DHT22;6863;48.402;9.994;2022-12-31T19:50:21;10.70;99.90
13585;DHT22;6863;48.402;9.994;2022-12-31T19:52:48;10.80;99.90
13585;DHT22;6863;48.402;9.994;2022-12-31T19:55:17;10.70;99.90
13585;DHT22;6863;48.402;9.994;2022-12-31T19:57:44;10.70;99.90
13585;DHT22;6863;48.402;9.994;2022-12-31T20:00:14;10.60;99.90
13585;DHT22;6863;48.402;9.994;2022-12-31T20:02:42;10.60;99.90
13585;DHT22;6863;48.402;9.994;2022-12-31T20:05:09;10.50;99.90
13585;DHT22;6863;48.402;9.994;2022-12-31T20:07:35;10.50;99.90
13585;DHT22;6863;48.402;9.994;2022-12-31T20:10:00;10.30;99.90
13585;DHT22;6863;48.402;9.994;2022-12-31T20:12:27;10.30;99.90
13585;DHT22;6863;48.402;9.994;2022-12-31T20:14:53;10.20;99.90
13585;DHT22;6863;48.402;9.994;2022-12-31T20:17:19;10.00;99.90
13585;DHT22;6863;48.402;9.994;2022-12-31T20:19:44;10.00;99.90
13585;DHT22;6863;48.402;9.994;2022-12-31T20:22:10;9.90;99.90
13585;DHT22;6863;48.402;9.994;2022-12-31T20:24:35;9.90;99.90
13585;DHT22;6863;48.402;9.994;2022-12-31T20:27:02;10.00;99.90
13585;DHT22;6863;48.402;9.994;2022-12-31T20:29:27;10.10;99.90
13585;DHT22;6863;48.402;9.994;2022-12-31T20:31:53;10.10;99.90
13585;DHT22;6863;48.402;9.994;2022-12-31T20:34:19;10.00;99.90